Time;durP1;ratioP1;P1;durP2;ratioP2;P2;SDS_P1;SDS_P2;PMS_P1;PMS_P2;Temp;Humidity;BMP_temperature;BMP_pressure;BME280_temperature;BME280_humidity;BME280_pressure;Samples;Min_cycle;Max_cycle;Signal;HPM_P1;HPM_P2
2022/08/30 00:06:58;;;;;;;1.20;1.00;;;;;;;19.50;98.42;101935.63;20805455;28;20064;-74
2022/08/30 00:17:00;;;;;;;1.77;0.90;;;;;;;19.59;98.09;101950.25;20804712;28;20490;-76
2022/08/30 00:27:01;;;;;;;2.65;1.10;;;;;;;19.58;98.05;101954.75;20803405;28;20502;-74
2022/08/30 00:37:03;;;;;;;1.00;0.90;;;;;;;19.58;98.03;101943.13;20704736;28;20045;-74
2022/08/30 00:47:05;;;;;;;1.73;1.23;;;;;;;19.40;97.89;101919.28;20677377;28;20096;-74
2022/08/30 00:57:07;;;;;;;1.10;0.90;;;;;;;19.48;97.85;101940.28;20697912;28;20372;-74
2022/08/30 01:07:08;;;;;;;2.38;0.80;;;;;;;19.56;97.77;101948.63;20697769;28;20057;-74
2022/08/30 01:17:10;;;;;;;0.98;0.60;;;;;;;19.33;97.50;101910.81;20697349;28;20116;-74
2022/08/30 01:27:16;;;;;;;1.27;1.02;;;;;;;19.55;97.40;101955.00;20713053;28;20054;-74
2022/08/30 01:37:22;;;;;;;1.05;0.82;;;;;;;19.55;97.29;101955.00;20682575;28;20111;-74
2022/08/30 01:47:24;;;;;;;1.48;0.90;;;;;;;19.53;97.21;101960.56;20714751;28;20579;-74
2022/08/30 01:57:27;;;;;;;0.95;0.70;;;;;;;19.54;97.01;101969.50;20697459;28;20064;-74
2022/08/30 02:07:28;;;;;;;0.80;0.80;;;;;;;19.52;96.97;101956.13;20712912;28;20050;-74
2022/08/30 02:17:30;;;;;;;0.95;0.85;;;;;;;19.52;96.79;101966.94;20695900;28;20056;-74
2022/08/30 02:27:31;;;;;;;1.20;0.88;;;;;;;19.51;96.59;101970.63;20714439;28;20062;-74
2022/08/30 02:37:33;;;;;;;0.88;0.80;;;;;;;19.51;96.62;101965.22;20713730;28;20402;-74
2022/08/30 02:47:35;;;;;;;0.75;0.75;;;;;;;19.27;96.48;101936.44;20714228;28;20494;-74
2022/08/30 02:57:36;;;;;;;1.05;0.90;;;;;;;19.51;96.32;101976.03;20728968;28;20411;-74
2022/08/30 03:07:39;;;;;;;0.75;0.75;;;;;;;19.49;95.95;101956.38;20728247;28;20045;-75
2022/08/30 03:17:41;;;;;;;1.08;0.88;;;;;;;19.49;95.84;101959.06;20727141;28;20279;-74
2022/08/30 03:27:43;;;;;;;1.02;0.80;;;;;;;19.48;95.67;101964.59;20709689;28;20057;-74
2022/08/30 03:37:45;;;;;;;0.95;0.77;;;;;;;19.47;95.66;101963.75;20724763;28;20054;-74
2022/08/30 03:47:46;;;;;;;0.82;0.80;;;;;;;19.47;95.30;101968.28;20713153;28;20042;-75
2022/08/30 03:57:48;;;;;;;0.77;0.77;;;;;;;19.04;94.97;101896.91;20698472;28;20081;-77
2022/08/30 04:07:52;;;;;;;0.67;0.67;;;;;;;19.46;94.99;101972.81;20720333;28;20048;-74
2022/08/30 04:17:54;;;;;;;1.23;0.80;;;;;;;19.45;94.66;101978.34;20722439;28;20045;-75
2022/08/30 04:27:55;;;;;;;1.48;1.10;;;;;;;19.44;94.37;101966.66;20721511;28;20090;-74
2022/08/30 04:37:57;;;;;;;0.63;0.60;;;;;;;19.43;94.23;101981.13;20778364;28;20104;-74
2022/08/30 04:47:58;;;;;;;0.85;0.70;;;;;;;19.25;93.75;101962.72;20714589;28;20085;-74
2022/08/30 04:58:00;;;;;;;1.40;0.88;;;;;;;19.34;93.54;101976.47;20698487;28;20056;-75
2022/08/30 05:08:02;;;;;;;0.85;0.70;;;;;;;19.41;93.24;102005.56;20716983;28;20104;-74
2022/08/30 05:18:03;;;;;;;0.98;0.90;;;;;;;19.41;92.99;102010.97;20703490;28;20074;-74
2022/08/30 05:28:05;;;;;;;0.82;0.77;;;;;;;19.40;92.94;102022.75;20695775;28;20124;-74
2022/08/30 05:38:06;;;;;;;0.77;0.70;;;;;;;19.41;92.56;102029.00;20715201;28;20060;-75
2022/08/30 05:48:08;;;;;;;1.33;0.85;;;;;;;19.31;92.32;102019.91;20685869;28;20137;-75
2022/08/30 05:58:13;;;;;;;;;;;;;;;19.40;91.98;102030.00;20697272;28;20133;-75
2022/08/30 06:08:14;;;;;;;0.93;0.82;;;;;;;19.38;92.14;102035.53;20706430;28;19922;-75
2022/08/30 06:18:16;;;;;;;0.85;0.85;;;;;;;19.22;91.76;102016.06;20678038;28;20092;-75
2022/08/30 06:28:22;;;;;;;1.25;0.70;;;;;;;19.32;91.66;102024.31;20706900;28;20507;-74
2022/08/30 06:38:23;;;;;;;0.73;0.70;;;;;;;19.38;91.44;102031.94;20694663;28;20052;-75
2022/08/30 06:48:25;;;;;;;0.82;0.70;;;;;;;19.36;91.47;102042.88;20683521;28;20406;-74
2022/08/30 06:58:27;;;;;;;0.88;0.80;;;;;;;19.38;91.62;102043.63;20700620;28;20065;-75
2022/08/30 07:08:28;;;;;;;0.60;0.60;;;;;;;19.37;91.54;102052.69;20696451;28;20077;-74
2022/08/30 07:28:51;;;;;;;1.77;0.90;;;;;;;19.38;91.39;102045.44;20685357;28;20414;-74
2022/08/30 07:38:56;;;;;;;0.40;0.40;;;;;;;19.38;91.27;102050.84;20686207;28;20546;-75
2022/08/30 07:48:59;;;;;;;0.77;0.70;;;;;;;19.38;91.13;102048.16;20687015;28;20046;-74
2022/08/30 07:59:02;;;;;;;0.80;0.70;;;;;;;19.28;90.94;102031.81;20702302;28;20053;-74
2022/08/30 08:09:04;;;;;;;1.17;0.55;;;;;;;19.39;91.18;102063.38;20694762;28;20498;-74
2022/08/30 08:19:07;;;;;;;3.28;0.80;;;;;;;19.40;90.96;102055.16;20672708;28;20482;-75
2022/08/30 08:29:09;;;;;;;1.02;0.90;;;;;;;19.48;90.35;102061.81;20692292;28;20045;-76
2022/08/30 08:39:11;;;;;;;3.45;0.73;;;;;;;19.58;89.36;102061.97;20680442;28;20453;-76
2022/08/30 08:49:12;;;;;;;2.40;0.80;;;;;;;19.68;88.38;102063.84;20681869;28;20661;-76
2022/08/30 08:59:15;;;;;;;1.02;0.65;;;;;;;19.76;87.73;102059.66;20686018;28;20068;-75
2022/08/30 09:09:20;;;;;;;1.52;0.57;;;;;;;19.80;87.42;102061.16;20673640;28;20077;-76
2022/08/30 09:19:31;;;;;;;2.55;0.50;;;;;;;19.86;86.70;102066.06;20669348;28;20111;-75
2022/08/30 09:29:35;;;;;;;2.90;0.80;;;;;;;19.11;85.83;101925.13;20679941;28;20060;-75
2022/08/30 09:39:40;;;;;;;1.65;0.63;;;;;;;19.95;85.54;102059.13;20680205;28;20057;-75
2022/08/30 09:49:43;;;;;;;1.00;0.60;;;;;;;19.99;84.83;102050.63;20660830;28;20069;-75
2022/08/30 09:59:55;;;;;;;0.80;0.50;;;;;;;19.79;84.76;102008.94;20667935;28;20048;-75
2022/08/30 10:10:07;;;;;;;1.30;0.70;;;;;;;20.07;83.97;102036.50;20666724;28;20131;-75
2022/08/30 10:20:26;;;;;;;2.65;1.10;;;;;;;20.09;84.20;102044.47;20749806;28;20038;-74
2022/08/30 10:30:30;;;;;;;1.40;0.60;;;;;;;19.92;84.03;102008.00;20669834;28;20414;-75
2022/08/30 10:51:00;;;;;;;1.23;0.73;;;;;;;20.00;84.33;102014.50;20749781;28;20132;-76
2022/08/30 11:01:31;;;;;;;1.00;0.90;;;;;;;19.97;84.22;102013.91;20757219;28;20123;-75
2022/08/30 11:11:38;;;;;;;0.70;0.60;;;;;;;19.94;84.38;102014.16;20676872;28;20066;-75
2022/08/30 11:21:42;;;;;;;0.98;0.70;;;;;;;19.67;84.69;101958.59;20686193;28;20192;-75
2022/08/30 11:31:43;;;;;;;3.08;0.60;;;;;;;19.47;84.37;101909.72;20755334;28;20147;-76
2022/08/30 11:42:11;;;;;;;1.10;0.70;;;;;;;19.90;84.18;101996.44;20758749;28;20049;-76
2022/08/30 11:52:23;;;;;;;2.42;0.68;;;;;;;19.89;84.24;101982.03;20753835;28;20069;-77
2022/08/30 12:02:59;;;;;;;1.30;0.53;;;;;;;19.89;84.15;101970.41;20705842;28;20099;-75
2022/08/30 12:13:03;;;;;;;1.02;0.77;;;;;;;19.88;83.87;101969.50;20669098;28;20073;-74
2022/08/30 12:23:16;;;;;;;2.00;0.63;;;;;;;19.86;83.50;101975.03;20708732;28;20050;-74
2022/08/30 12:33:31;;;;;;;0.73;0.70;;;;;;;19.70;83.05;101947.53;20687692;28;20445;-74
2022/08/30 12:43:49;;;;;;;1.38;0.70;;;;;;;19.82;82.83;101956.50;20686455;28;20049;-74
2022/08/30 12:53:50;;;;;;;2.10;0.70;;;;;;;19.84;82.82;101955.38;20682868;28;20084;-74
2022/08/30 13:04:22;;;;;;;1.35;0.63;;;;;;;19.81;83.16;101950.22;20666721;28;20053;-74
2022/08/30 13:14:37;;;;;;;1.17;0.70;;;;;;;19.79;83.07;101944.09;20661641;28;20141;-74
2022/08/30 13:24:42;;;;;;;1.05;0.60;;;;;;;19.76;83.25;101930.81;20662293;28;20061;-75
2022/08/30 13:34:44;;;;;;;1.48;0.73;;;;;;;19.74;83.21;101918.44;20672306;28;20799;-75
2022/08/30 13:44:46;;;;;;;0.65;0.52;;;;;;;19.69;83.43;101916.09;20679187;28;20053;-74
2022/08/30 13:54:50;;;;;;;0.95;0.73;;;;;;;19.67;83.21;101910.84;20664854;28;20141;-74
2022/08/30 14:04:51;;;;;;;1.08;0.40;;;;;;;19.68;83.46;101906.28;20675270;28;20140;-74
2022/08/30 14:14:53;;;;;;;1.20;0.90;;;;;;;19.69;83.38;101910.69;20665573;28;20094;-75
2022/08/30 14:25:00;;;;;;;1.10;0.68;;;;;;;19.47;83.17;101882.72;20690950;28;20054;-74
2022/08/30 14:35:02;;;;;;;1.13;0.50;;;;;;;19.66;83.45;101902.84;20683477;28;20054;-74
2022/08/30 14:45:04;;;;;;;0.75;0.60;;;;;;;19.65;83.61;101901.13;20675108;28;20050;-74
2022/08/30 14:55:08;;;;;;;0.60;0.60;;;;;;;19.66;83.92;101902.84;20694800;28;20050;-74
2022/08/30 15:05:10;;;;;;;0.70;0.60;;;;;;;19.65;84.04;101895.72;20703238;28;20129;-74
2022/08/30 15:15:18;;;;;;;0.82;0.65;;;;;;;19.64;83.82;101896.69;20670463;28;20042;-74
2022/08/30 15:25:20;;;;;;;1.05;0.40;;;;;;;19.64;84.01;101881.34;20684790;28;20046;-74
2022/08/30 15:35:22;;;;;;;0.63;0.60;;;;;;;19.63;83.99;101876.06;20688852;28;20070;-73
2022/08/30 15:45:23;;;;;;;1.08;0.50;;;;;;;19.54;84.09;101864.16;20688837;28;20049;-75
2022/08/30 15:55:25;;;;;;;1.48;0.60;;;;;;;19.63;84.08;101870.69;20681402;28;20491;-74
2022/08/30 16:05:28;;;;;;;0.57;0.45;;;;;;;19.43;84.07;101835.31;20670252;28;20049;-74
2022/08/30 16:15:29;;;;;;;1.92;0.70;;;;;;;19.62;84.10;101848.19;20675460;28;20069;-74
2022/08/30 16:25:31;;;;;;;1.10;0.60;;;;;;;19.63;84.18;101838.25;20688636;28;20053;-75
2022/08/30 16:35:41;;;;;;;1.73;0.85;;;;;;;19.63;84.41;101838.25;20670062;28;20073;-75
2022/08/30 16:45:44;;;;;;;1.80;0.80;;;;;;;19.48;84.55;101814.22;20639034;28;20132;-75
2022/08/30 16:55:46;;;;;;;1.10;0.77;;;;;;;19.61;84.80;101829.44;20716628;28;20136;-75
2022/08/30 17:05:47;;;;;;;2.30;0.80;;;;;;;19.61;85.09;101829.44;20745119;28;20049;-73
2022/08/30 17:15:50;;;;;;;2.80;0.90;;;;;;;19.60;85.21;101838.50;20748198;28;20098;-74
2022/08/30 17:25:52;;;;;;;1.75;0.80;;;;;;;19.60;85.45;101846.63;20750101;28;20183;-75
2022/08/30 17:35:53;;;;;;;4.80;0.77;;;;;;;19.54;85.58;101840.72;20776853;28;20104;-75
2022/08/30 17:46:03;;;;;;;0.90;0.50;;;;;;;19.57;85.62;101855.81;20750313;28;20146;-74
2022/08/30 17:56:07;;;;;;;0.60;0.60;;;;;;;19.58;85.62;101872.88;20679068;28;20054;-74
2022/08/30 18:06:09;;;;;;;1.25;0.70;;;;;;;19.56;85.93;101890.09;20671616;28;20133;-73
2022/08/30 18:16:11;;;;;;;1.08;0.60;;;;;;;19.56;85.98;101895.47;20668418;28;20534;-74
2022/08/30 18:26:13;;;;;;;1.80;0.80;;;;;;;19.56;85.99;101913.50;20682427;28;20128;-74
2022/08/30 18:36:17;;;;;;;1.57;0.80;;;;;;;19.55;86.11;101923.47;20675292;28;20163;-74
2022/08/30 18:46:19;;;;;;;0.90;0.60;;;;;;;19.54;86.07;101942.50;20677033;28;20038;-75
2022/08/30 18:56:21;;;;;;;1.05;0.77;;;;;;;19.08;86.06;101872.25;20678867;28;20053;-74
2022/08/30 19:06:28;;;;;;;2.13;0.70;;;;;;;19.52;86.19;101958.84;20695613;28;20049;-75
2022/08/30 19:16:30;;;;;;;1.25;0.60;;;;;;;19.52;86.20;101960.66;20693378;28;20072;-75
2022/08/30 19:26:33;;;;;;;1.63;0.70;;;;;;;19.31;86.47;101936.22;20692985;28;20056;-75
2022/08/30 19:36:35;;;;;;;1.10;0.65;;;;;;;19.46;86.21;101963.84;20721741;28;20088;-75
2022/08/30 19:46:37;;;;;;;1.33;0.75;;;;;;;19.47;86.00;101973.66;20726118;28;20065;-75
2022/08/30 19:56:38;;;;;;;0.95;0.70;;;;;;;19.48;85.82;101981.66;20725399;28;20438;-75
2022/08/30 20:06:41;;;;;;;0.77;0.57;;;;;;;19.48;85.71;101987.06;20724992;28;20384;-75
2022/08/30 20:16:43;;;;;;;1.27;0.50;;;;;;;19.22;85.83;101946.75;20723809;28;20041;-75
2022/08/30 20:26:46;;;;;;;0.98;0.60;;;;;;;19.46;85.61;101978.22;20721898;28;20905;-75
2022/08/30 20:36:48;;;;;;;1.42;0.57;;;;;;;19.45;85.43;101984.59;20722594;28;20077;-75
2022/08/30 20:46:50;;;;;;;1.38;0.88;;;;;;;19.40;84.94;101982.25;20720739;28;20135;-74
2022/08/30 20:56:51;;;;;;;1.42;0.77;;;;;;;19.44;84.83;102000.91;20718865;28;20052;-75
2022/08/30 21:06:53;;;;;;;0.57;0.50;;;;;;;19.42;84.77;101998.31;20718971;28;20057;-75
2022/08/30 21:16:54;;;;;;;0.45;0.43;;;;;;;19.42;84.47;102006.41;20717242;28;20093;-75
2022/08/30 21:26:57;;;;;;;0.90;0.70;;;;;;;19.32;84.35;102000.03;20718323;28;20641;-76
2022/08/30 21:36:59;;;;;;;0.93;0.50;;;;;;;19.23;84.36;102004.31;20716082;28;20073;-76
2022/08/30 21:47:01;;;;;;;1.60;0.68;;;;;;;19.40;84.40;102038.09;20717328;28;20092;-75
2022/08/30 21:57:03;;;;;;;0.93;0.75;;;;;;;19.39;84.13;102045.34;20715947;28;20111;-75
2022/08/30 22:07:07;;;;;;;0.95;0.65;;;;;;;19.37;83.94;102055.41;20698438;28;20050;-76
2022/08/30 22:17:08;;;;;;;1.23;0.47;;;;;;;19.38;83.96;102061.66;20713184;28;20108;-75
2022/08/30 22:27:10;;;;;;;0.90;0.60;;;;;;;19.37;83.63;102062.63;20714618;28;20053;-76
2022/08/30 22:37:11;;;;;;;0.82;0.60;;;;;;;19.36;83.57;102071.72;20714586;28;20100;-78
2022/08/30 22:47:13;;;;;;;1.23;0.55;;;;;;;19.36;83.70;102082.50;20714753;28;20046;-75
2022/08/30 22:57:17;;;;;;;1.05;0.73;;;;;;;19.36;83.58;102082.50;20713497;28;20068;-75
2022/08/30 23:07:18;;;;;;;1.00;0.70;;;;;;;19.35;83.54;102078.09;20717644;28;20054;-75
2022/08/30 23:17:20;;;;;;;0.55;0.47;;;;;;;19.33;83.44;102075.53;20752649;28;20041;-75
